sensor_id;sensor_type;location;lat;lon;timestamp;pressure;altitude;pressure_sealevel;temperature;humidity
69058;BME280;56128;37.534;-122.308;2022-09-24T00:01:25;101065.97;;;27.02;37.88
69058;BME280;56128;37.534;-122.308;2022-09-24T00:03:57;101057.97;;;27.01;36.07
69058;BME280;56128;37.534;-122.308;2022-09-24T00:06:26;101062.19;;;27.03;36.25
69058;BME280;56128;37.534;-122.308;2022-09-24T00:08:53;101068.06;;;27.07;35.58
69058;BME280;56128;37.534;-122.308;2022-09-24T00:11:22;101070.88;;;26.94;37.06
69058;BME280;56128;37.534;-122.308;2022-09-24T00:13:50;101065.84;;;26.91;36.04
69058;BME280;56128;37.534;-122.308;2022-09-24T00:16:18;101062.81;;;26.99;35.66
69058;BME280;56128;37.534;-122.308;2022-09-24T00:18:44;101067.69;;;26.97;35.98
69058;BME280;56128;37.534;-122.308;2022-09-24T00:21:22;101070.22;;;26.98;34.89
69058;BME280;56128;37.534;-122.308;2022-09-24T00:23:51;101068.59;;;26.91;35.34
69058;BME280;56128;37.534;-122.308;2022-09-24T00:26:18;101060.53;;;26.89;35.40
69058;BME280;56128;37.534;-122.308;2022-09-24T00:29:03;101063.69;;;26.93;35.25
69058;BME280;56128;37.534;-122.308;2022-09-24T00:31:30;101071.13;;;26.85;35.13
69058;BME280;56128;37.534;-122.308;2022-09-24T00:33:57;101064.78;;;26.85;35.31
69058;BME280;56128;37.534;-122.308;2022-09-24T00:36:23;101055.97;;;26.76;35.93
69058;BME280;56128;37.534;-122.308;2022-09-24T00:38:51;101061.28;;;26.64;36.21
69058;BME280;56128;37.534;-122.308;2022-09-24T00:41:19;101064.88;;;26.58;36.25
69058;BME280;56128;37.534;-122.308;2022-09-24T00:43:47;101065.13;;;26.43;38.15
69058;BME280;56128;37.534;-122.308;2022-09-24T00:49:01;101058.38;;;26.39;37.17
69058;BME280;56128;37.534;-122.308;2022-09-24T00:51:32;101062.38;;;26.36;36.11
69058;BME280;56128;37.534;-122.308;2022-09-24T00:54:02;101071.28;;;26.25;37.34
69058;BME280;56128;37.534;-122.308;2022-09-24T00:56:31;101071.31;;;26.12;38.17
69058;BME280;56128;37.534;-122.308;2022-09-24T00:59:00;101069.19;;;26.14;36.83
69058;BME280;56128;37.534;-122.308;2022-09-24T01:01:29;101071.50;;;26.03;36.69
69058;BME280;56128;37.534;-122.308;2022-09-24T01:03:57;101075.50;;;26.01;37.18
69058;BME280;56128;37.534;-122.308;2022-09-24T01:06:24;101082.47;;;25.97;36.47
69058;BME280;56128;37.534;-122.308;2022-09-24T01:08:52;101078.69;;;25.91;37.13
69058;BME280;56128;37.534;-122.308;2022-09-24T01:31:15;101075.22;;;24.67;40.05
69058;BME280;56128;37.534;-122.308;2022-09-24T01:33:45;101087.78;;;24.61;40.25
69058;BME280;56128;37.534;-122.308;2022-09-24T01:36:18;101083.69;;;24.43;40.28
69058;BME280;56128;37.534;-122.308;2022-09-24T01:38:46;101092.72;;;24.37;39.96
69058;BME280;56128;37.534;-122.308;2022-09-24T01:41:15;101088.63;;;24.26;40.61
69058;BME280;56128;37.534;-122.308;2022-09-24T01:43:42;101090.88;;;24.16;40.34
69058;BME280;56128;37.534;-122.308;2022-09-24T01:46:10;101090.97;;;24.01;41.03
69058;BME280;56128;37.534;-122.308;2022-09-24T01:48:37;101097.34;;;23.87;40.85
69058;BME280;56128;37.534;-122.308;2022-09-24T01:51:20;101092.81;;;23.72;41.00
69058;BME280;56128;37.534;-122.308;2022-09-24T01:54:04;101099.00;;;23.59;41.24
69058;BME280;56128;37.534;-122.308;2022-09-24T01:56:40;101093.97;;;23.41;41.17
69058;BME280;56128;37.534;-122.308;2022-09-24T01:59:31;101100.41;;;23.33;41.43
69058;BME280;56128;37.534;-122.308;2022-09-24T02:02:22;101101.31;;;23.19;42.03
69058;BME280;56128;37.534;-122.308;2022-09-24T02:04:55;101107.81;;;23.03;42.59
69058;BME280;56128;37.534;-122.308;2022-09-24T02:10:19;101096.53;;;22.76;42.27
69058;BME280;56128;37.534;-122.308;2022-09-24T02:12:52;101096.19;;;22.64;42.80
69058;BME280;56128;37.534;-122.308;2022-09-24T02:15:30;101091.13;;;22.46;43.03
69058;BME280;56128;37.534;-122.308;2022-09-24T02:18:01;101100.75;;;22.34;43.42
69058;BME280;56128;37.534;-122.308;2022-09-24T02:20:29;101102.88;;;22.24;43.58
69058;BME280;56128;37.534;-122.308;2022-09-24T02:22:58;101098.56;;;22.14;43.62
69058;BME280;56128;37.534;-122.308;2022-09-24T02:25:48;101105.69;;;22.00;43.83
69058;BME280;56128;37.534;-122.308;2022-09-24T02:28:17;101103.22;;;21.91;44.01
69058;BME280;56128;37.534;-122.308;2022-09-24T02:30:49;101099.59;;;21.75;44.35
69058;BME280;56128;37.534;-122.308;2022-09-24T02:33:16;101105.09;;;21.67;44.71
69058;BME280;56128;37.534;-122.308;2022-09-24T02:36:01;101112.69;;;21.56;44.84
69058;BME280;56128;37.534;-122.308;2022-09-24T02:38:28;101110.72;;;21.42;44.90
69058;BME280;56128;37.534;-122.308;2022-09-24T02:40:54;101116.00;;;21.35;45.20
69058;BME280;56128;37.534;-122.308;2022-09-24T02:43:21;101125.06;;;21.28;44.77
69058;BME280;56128;37.534;-122.308;2022-09-24T02:45:47;101127.84;;;21.19;45.69
69058;BME280;56128;37.534;-122.308;2022-09-24T02:48:13;101122.25;;;21.13;45.73
69058;BME280;56128;37.534;-122.308;2022-09-24T02:50:39;101128.41;;;21.06;45.87
69058;BME280;56128;37.534;-122.308;2022-09-24T02:53:05;101136.25;;;21.01;45.86
69058;BME280;56128;37.534;-122.308;2022-09-24T02:55:31;101133.75;;;20.91;46.16
69058;BME280;56128;37.534;-122.308;2022-09-24T02:57:57;101143.63;;;20.84;46.26
69058;BME280;56128;37.534;-122.308;2022-09-24T03:00:24;101137.38;;;20.75;46.44
69058;BME280;56128;37.534;-122.308;2022-09-24T03:02:50;101144.00;;;20.73;46.27
69058;BME280;56128;37.534;-122.308;2022-09-24T03:05:16;101140.44;;;20.64;46.35
69058;BME280;56128;37.534;-122.308;2022-09-24T03:07:43;101144.72;;;20.58;46.61
69058;BME280;56128;37.534;-122.308;2022-09-24T03:10:10;101154.75;;;20.50;46.74
69058;BME280;56128;37.534;-122.308;2022-09-24T03:12:36;101158.34;;;20.42;47.11
69058;BME280;56128;37.534;-122.308;2022-09-24T03:15:03;101156.00;;;20.31;47.27
69058;BME280;56128;37.534;-122.308;2022-09-24T03:17:29;101164.13;;;20.22;47.57
69058;BME280;56128;37.534;-122.308;2022-09-24T03:19:55;101162.09;;;20.16;47.73
69058;BME280;56128;37.534;-122.308;2022-09-24T03:22:21;101153.28;;;20.06;47.80
69058;BME280;56128;37.534;-122.308;2022-09-24T03:24:47;101177.91;;;20.04;48.04
69058;BME280;56128;37.534;-122.308;2022-09-24T03:27:13;101178.06;;;19.94;48.44
69058;BME280;56128;37.534;-122.308;2022-09-24T03:29:40;101180.75;;;19.86;48.48
69058;BME280;56128;37.534;-122.308;2022-09-24T03:32:24;101187.00;;;19.78;48.80
69058;BME280;56128;37.534;-122.308;2022-09-24T03:34:51;101183.59;;;19.68;49.55
69058;BME280;56128;37.534;-122.308;2022-09-24T03:37:17;101184.44;;;19.60;49.27
69058;BME280;56128;37.534;-122.308;2022-09-24T03:39:43;101196.97;;;19.53;49.44
69058;BME280;56128;37.534;-122.308;2022-09-24T03:42:09;101199.66;;;19.45;49.90
69058;BME280;56128;37.534;-122.308;2022-09-24T03:44:35;101206.59;;;19.39;50.39
69058;BME280;56128;37.534;-122.308;2022-09-24T03:47:02;101205.88;;;19.29;50.79
69058;BME280;56128;37.534;-122.308;2022-09-24T03:49:28;101197.88;;;19.19;52.42
69058;BME280;56128;37.534;-122.308;2022-09-24T03:51:54;101202.25;;;19.12;52.34
69058;BME280;56128;37.534;-122.308;2022-09-24T03:54:20;101207.97;;;19.01;52.58
69058;BME280;56128;37.534;-122.308;2022-09-24T03:56:46;101211.91;;;18.88;53.08
69058;BME280;56128;37.534;-122.308;2022-09-24T03:59:13;101205.59;;;18.79;52.95
69058;BME280;56128;37.534;-122.308;2022-09-24T04:01:39;101210.66;;;18.74;53.54
69058;BME280;56128;37.534;-122.308;2022-09-24T04:04:05;101208.59;;;18.68;55.15
69058;BME280;56128;37.534;-122.308;2022-09-24T04:06:32;101213.09;;;18.59;55.25
69058;BME280;56128;37.534;-122.308;2022-09-24T04:08:58;101220.16;;;18.52;55.64
69058;BME280;56128;37.534;-122.308;2022-09-24T04:11:24;101217.69;;;18.41;55.74
69058;BME280;56128;37.534;-122.308;2022-09-24T04:13:51;101230.88;;;18.36;56.36
69058;BME280;56128;37.534;-122.308;2022-09-24T04:16:18;101226.25;;;18.28;56.52
69058;BME280;56128;37.534;-122.308;2022-09-24T04:18:44;101227.34;;;18.17;57.09
69058;BME280;56128;37.534;-122.308;2022-09-24T04:21:13;101233.41;;;18.11;57.53
69058;BME280;56128;37.534;-122.308;2022-09-24T04:23:39;101233.13;;;18.04;57.80
69058;BME280;56128;37.534;-122.308;2022-09-24T04:26:05;101233.22;;;17.94;57.73
69058;BME280;56128;37.534;-122.308;2022-09-24T04:28:31;101232.66;;;17.91;59.01
69058;BME280;56128;37.534;-122.308;2022-09-24T04:30:58;101238.13;;;17.81;58.63
69058;BME280;56128;37.534;-122.308;2022-09-24T04:33:24;101235.94;;;17.66;59.49
69058;BME280;56128;37.534;-122.308;2022-09-24T04:36:11;101230.13;;;17.61;59.20
69058;BME280;56128;37.534;-122.308;2022-09-24T04:38:37;101236.00;;;17.57;60.22
69058;BME280;56128;37.534;-122.308;2022-09-24T04:41:05;101234.59;;;17.52;61.39
69058;BME280;56128;37.534;-122.308;2022-09-24T04:43:31;101234.97;;;17.40;60.38
69058;BME280;56128;37.534;-122.308;2022-09-24T04:45:58;101245.06;;;17.38;60.03
69058;BME280;56128;37.534;-122.308;2022-09-24T04:48:25;101239.03;;;17.26;60.83
69058;BME280;56128;37.534;-122.308;2022-09-24T04:50:51;101252.28;;;17.19;60.94
69058;BME280;56128;37.534;-122.308;2022-09-24T04:53:17;101243.91;;;17.12;63.38
69058;BME280;56128;37.534;-122.308;2022-09-24T04:55:43;101253.59;;;17.05;63.31
69058;BME280;56128;37.534;-122.308;2022-09-24T04:58:09;101247.38;;;16.95;63.10
69058;BME280;56128;37.534;-122.308;2022-09-24T05:00:35;101249.53;;;16.91;64.14
69058;BME280;56128;37.534;-122.308;2022-09-24T05:03:02;101246.97;;;16.80;65.30
69058;BME280;56128;37.534;-122.308;2022-09-24T05:05:28;101251.69;;;16.78;65.24
69058;BME280;56128;37.534;-122.308;2022-09-24T05:07:54;101250.00;;;16.67;64.76
69058;BME280;56128;37.534;-122.308;2022-09-24T05:10:24;101255.81;;;16.62;65.81
69058;BME280;56128;37.534;-122.308;2022-09-24T05:12:51;101249.16;;;16.47;66.22
69058;BME280;56128;37.534;-122.308;2022-09-24T05:15:17;101256.13;;;16.49;66.46
69058;BME280;56128;37.534;-122.308;2022-09-24T05:17:46;101254.28;;;16.40;66.58
69058;BME280;56128;37.534;-122.308;2022-09-24T05:20:13;101252.28;;;16.32;66.72
69058;BME280;56128;37.534;-122.308;2022-09-24T05:22:44;101262.81;;;16.26;67.60
69058;BME280;56128;37.534;-122.308;2022-09-24T05:25:12;101270.22;;;16.14;67.68
69058;BME280;56128;37.534;-122.308;2022-09-24T05:27:46;101265.38;;;16.08;67.92
69058;BME280;56128;37.534;-122.308;2022-09-24T05:30:12;101267.78;;;16.01;68.04
69058;BME280;56128;37.534;-122.308;2022-09-24T05:32:39;101270.19;;;15.94;67.49
69058;BME280;56128;37.534;-122.308;2022-09-24T05:35:05;101272.31;;;15.90;68.17
69058;BME280;56128;37.534;-122.308;2022-09-24T05:37:34;101272.47;;;15.89;70.17
69058;BME280;56128;37.534;-122.308;2022-09-24T05:40:01;101280.34;;;15.81;69.87
69058;BME280;56128;37.534;-122.308;2022-09-24T05:42:47;101281.34;;;15.70;69.78
69058;BME280;56128;37.534;-122.308;2022-09-24T05:45:13;101273.78;;;15.64;70.37
69058;BME280;56128;37.534;-122.308;2022-09-24T05:47:43;101278.03;;;15.56;70.41
69058;BME280;56128;37.534;-122.308;2022-09-24T05:50:10;101279.28;;;15.52;71.05
69058;BME280;56128;37.534;-122.308;2022-09-24T05:52:38;101275.28;;;15.47;71.30
69058;BME280;56128;37.534;-122.308;2022-09-24T05:55:05;101273.28;;;15.39;70.91
69058;BME280;56128;37.534;-122.308;2022-09-24T05:57:33;101272.69;;;15.35;71.02
69058;BME280;56128;37.534;-122.308;2022-09-24T05:59:59;101279.22;;;15.33;70.79
69058;BME280;56128;37.534;-122.308;2022-09-24T06:02:25;101272.50;;;15.27;72.58
69058;BME280;56128;37.534;-122.308;2022-09-24T06:04:51;101269.50;;;15.20;72.85
69058;BME280;56128;37.534;-122.308;2022-09-24T06:07:19;101273.63;;;15.15;72.93
69058;BME280;56128;37.534;-122.308;2022-09-24T06:09:45;101278.53;;;15.09;73.59
69058;BME280;56128;37.534;-122.308;2022-09-24T06:12:12;101274.41;;;15.05;73.76
69058;BME280;56128;37.534;-122.308;2022-09-24T06:14:40;101279.19;;;15.02;73.59
69058;BME280;56128;37.534;-122.308;2022-09-24T06:17:08;101275.06;;;14.98;74.94
69058;BME280;56128;37.534;-122.308;2022-09-24T06:19:34;101268.34;;;14.92;74.37
69058;BME280;56128;37.534;-122.308;2022-09-24T06:22:00;101281.13;;;14.90;73.86
69058;BME280;56128;37.534;-122.308;2022-09-24T06:24:26;101278.00;;;14.85;73.53
69058;BME280;56128;37.534;-122.308;2022-09-24T06:26:52;101281.91;;;14.81;74.28
69058;BME280;56128;37.534;-122.308;2022-09-24T06:29:19;101276.94;;;14.76;74.89
69058;BME280;56128;37.534;-122.308;2022-09-24T06:31:46;101282.13;;;14.68;75.19
69058;BME280;56128;37.534;-122.308;2022-09-24T06:34:12;101286.53;;;14.69;74.76
69058;BME280;56128;37.534;-122.308;2022-09-24T06:36:38;101281.75;;;14.61;75.30
69058;BME280;56128;37.534;-122.308;2022-09-24T06:39:05;101281.03;;;14.59;77.09
69058;BME280;56128;37.534;-122.308;2022-09-24T06:41:31;101285.22;;;14.52;76.15
69058;BME280;56128;37.534;-122.308;2022-09-24T06:43:58;101284.53;;;14.50;76.48
69058;BME280;56128;37.534;-122.308;2022-09-24T06:46:24;101285.63;;;14.47;76.99
69058;BME280;56128;37.534;-122.308;2022-09-24T06:48:51;101284.06;;;14.44;78.23
69058;BME280;56128;37.534;-122.308;2022-09-24T06:51:19;101281.00;;;14.38;78.31
69058;BME280;56128;37.534;-122.308;2022-09-24T06:53:45;101275.03;;;14.34;77.63
69058;BME280;56128;37.534;-122.308;2022-09-24T06:56:11;101278.97;;;14.30;78.03
69058;BME280;56128;37.534;-122.308;2022-09-24T06:58:38;101273.84;;;14.27;79.22
69058;BME280;56128;37.534;-122.308;2022-09-24T07:01:04;101274.38;;;14.21;79.43
69058;BME280;56128;37.534;-122.308;2022-09-24T07:03:33;101270.94;;;14.19;78.86
69058;BME280;56128;37.534;-122.308;2022-09-24T07:06:02;101272.88;;;14.17;78.58
69058;BME280;56128;37.534;-122.308;2022-09-24T07:08:29;101278.28;;;14.17;79.03
69058;BME280;56128;37.534;-122.308;2022-09-24T07:10:55;101277.94;;;14.10;78.94
69058;BME280;56128;37.534;-122.308;2022-09-24T07:13:22;101266.84;;;14.03;78.76
69058;BME280;56128;37.534;-122.308;2022-09-24T07:15:49;101275.63;;;14.05;78.57
69058;BME280;56128;37.534;-122.308;2022-09-24T07:18:17;101269.78;;;14.00;79.81
69058;BME280;56128;37.534;-122.308;2022-09-24T07:20:49;101268.31;;;13.96;79.68
69058;BME280;56128;37.534;-122.308;2022-09-24T07:23:15;101271.28;;;13.93;80.18
69058;BME280;56128;37.534;-122.308;2022-09-24T07:25:43;101271.53;;;13.90;80.74
69058;BME280;56128;37.534;-122.308;2022-09-24T07:28:12;101265.41;;;13.88;80.36
69058;BME280;56128;37.534;-122.308;2022-09-24T07:30:39;101271.19;;;13.83;81.18
69058;BME280;56128;37.534;-122.308;2022-09-24T07:33:05;101267.13;;;13.77;80.78
69058;BME280;56128;37.534;-122.308;2022-09-24T07:35:37;101267.13;;;13.77;79.52
69058;BME280;56128;37.534;-122.308;2022-09-24T07:38:06;101268.25;;;13.75;80.00
69058;BME280;56128;37.534;-122.308;2022-09-24T07:40:33;101265.09;;;13.70;81.11
69058;BME280;56128;37.534;-122.308;2022-09-24T07:42:59;101266.47;;;13.64;81.02
69058;BME280;56128;37.534;-122.308;2022-09-24T07:45:27;101264.00;;;13.61;80.70
69058;BME280;56128;37.534;-122.308;2022-09-24T07:48:02;101250.09;;;13.56;80.51
69058;BME280;56128;37.534;-122.308;2022-09-24T07:50:31;101263.41;;;13.57;81.26
69058;BME280;56128;37.534;-122.308;2022-09-24T07:52:57;101255.59;;;13.54;82.19
69058;BME280;56128;37.534;-122.308;2022-09-24T07:55:24;101262.31;;;13.48;81.95
69058;BME280;56128;37.534;-122.308;2022-09-24T07:57:52;101261.69;;;13.45;82.17
69058;BME280;56128;37.534;-122.308;2022-09-24T08:00:20;101266.22;;;13.44;83.60
69058;BME280;56128;37.534;-122.308;2022-09-24T08:02:47;101264.78;;;13.40;82.82
69058;BME280;56128;37.534;-122.308;2022-09-24T08:05:14;101259.63;;;13.37;83.13
69058;BME280;56128;37.534;-122.308;2022-09-24T08:07:41;101260.69;;;13.35;83.23
69058;BME280;56128;37.534;-122.308;2022-09-24T08:10:08;101260.09;;;13.31;84.54
69058;BME280;56128;37.534;-122.308;2022-09-24T08:12:34;101256.91;;;13.26;85.62
69058;BME280;56128;37.534;-122.308;2022-09-24T08:15:00;101262.16;;;13.27;84.74
69058;BME280;56128;37.534;-122.308;2022-09-24T08:17:26;101262.53;;;13.23;84.97
69058;BME280;56128;37.534;-122.308;2022-09-24T08:19:53;101259.84;;;13.23;85.38
69058;BME280;56128;37.534;-122.308;2022-09-24T08:22:22;101267.19;;;13.21;86.08
69058;BME280;56128;37.534;-122.308;2022-09-24T08:24:49;101265.47;;;13.20;84.85
69058;BME280;56128;37.534;-122.308;2022-09-24T08:27:16;101268.28;;;13.18;85.77
69058;BME280;56128;37.534;-122.308;2022-09-24T08:29:43;101273.03;;;13.14;85.16
69058;BME280;56128;37.534;-122.308;2022-09-24T08:32:10;101273.16;;;13.13;84.61
69058;BME280;56128;37.534;-122.308;2022-09-24T08:34:37;101275.38;;;13.08;85.30
69058;BME280;56128;37.534;-122.308;2022-09-24T08:37:06;101267.03;;;12.99;85.91
69058;BME280;56128;37.534;-122.308;2022-09-24T08:39:32;101280.34;;;13.01;85.38
69058;BME280;56128;37.534;-122.308;2022-09-24T08:42:10;101285.97;;;12.98;86.31
69058;BME280;56128;37.534;-122.308;2022-09-24T08:44:41;101285.97;;;12.98;86.51
69058;BME280;56128;37.534;-122.308;2022-09-24T08:50:24;101290.72;;;12.94;87.33
69058;BME280;56128;37.534;-122.308;2022-09-24T08:53:11;101284.00;;;12.89;86.92
69058;BME280;56128;37.534;-122.308;2022-09-24T08:55:42;101292.16;;;12.87;87.02
69058;BME280;56128;37.534;-122.308;2022-09-24T09:07:22;101292.00;;;12.77;87.54
69058;BME280;56128;37.534;-122.308;2022-09-24T09:10:09;101296.66;;;12.75;88.20
69058;BME280;56128;37.534;-122.308;2022-09-24T09:12:47;101294.22;;;12.72;87.75
69058;BME280;56128;37.534;-122.308;2022-09-24T09:15:20;101282.97;;;12.67;88.37
69058;BME280;56128;37.534;-122.308;2022-09-24T09:17:53;101291.78;;;12.69;87.81
69058;BME280;56128;37.534;-122.308;2022-09-24T09:20:34;101292.75;;;12.68;88.82
69058;BME280;56128;37.534;-122.308;2022-09-24T09:23:17;101293.00;;;12.65;88.66
69058;BME280;56128;37.534;-122.308;2022-09-24T09:25:52;101299.31;;;12.64;88.60
69058;BME280;56128;37.534;-122.308;2022-09-24T09:28:19;101288.81;;;12.61;89.35
69058;BME280;56128;37.534;-122.308;2022-09-24T09:30:49;101289.06;;;12.58;88.90
69058;BME280;56128;37.534;-122.308;2022-09-24T09:33:28;101291.00;;;12.56;90.21
69058;BME280;56128;37.534;-122.308;2022-09-24T09:41:52;101289.13;;;12.45;89.09
69058;BME280;56128;37.534;-122.308;2022-09-24T09:44:24;101293.75;;;12.43;89.69
69058;BME280;56128;37.534;-122.308;2022-09-24T09:47:03;101292.16;;;12.40;90.11
69058;BME280;56128;37.534;-122.308;2022-09-24T09:49:34;101290.44;;;12.39;90.12
69058;BME280;56128;37.534;-122.308;2022-09-24T09:52:10;101296.06;;;12.36;89.48
69058;BME280;56128;37.534;-122.308;2022-09-24T09:54:38;101290.69;;;12.36;90.30
69058;BME280;56128;37.534;-122.308;2022-09-24T09:57:12;101290.91;;;12.33;90.46
69058;BME280;56128;37.534;-122.308;2022-09-24T09:59:39;101286.75;;;12.29;91.19
69058;BME280;56128;37.534;-122.308;2022-09-24T10:02:09;101292.25;;;12.27;91.16
69058;BME280;56128;37.534;-122.308;2022-09-24T10:04:39;101296.84;;;12.25;90.87
69058;BME280;56128;37.534;-122.308;2022-09-24T10:07:09;101295.25;;;12.23;90.94
69058;BME280;56128;37.534;-122.308;2022-09-24T10:09:37;101298.16;;;12.20;91.18
69058;BME280;56128;37.534;-122.308;2022-09-24T10:12:19;101291.31;;;12.15;91.05
69058;BME280;56128;37.534;-122.308;2022-09-24T10:15:16;101294.13;;;12.14;90.98
69058;BME280;56128;37.534;-122.308;2022-09-24T10:17:43;101296.06;;;12.12;91.71
69058;BME280;56128;37.534;-122.308;2022-09-24T10:22:51;101304.47;;;12.07;91.74
69058;BME280;56128;37.534;-122.308;2022-09-24T10:25:23;101296.13;;;11.99;91.15
69058;BME280;56128;37.534;-122.308;2022-09-24T10:27:53;101310.16;;;12.02;93.27
69058;BME280;56128;37.534;-122.308;2022-09-24T10:30:52;101291.50;;;12.01;93.18
69058;BME280;56128;37.534;-122.308;2022-09-24T10:33:19;101291.72;;;11.98;92.81
69058;BME280;56128;37.534;-122.308;2022-09-24T10:35:46;101293.44;;;11.99;93.22
69058;BME280;56128;37.534;-122.308;2022-09-24T10:38:20;101295.28;;;11.98;94.15
69058;BME280;56128;37.534;-122.308;2022-09-24T10:40:48;101299.03;;;11.96;93.68
69058;BME280;56128;37.534;-122.308;2022-09-24T10:43:19;101302.84;;;11.92;94.14
69058;BME280;56128;37.534;-122.308;2022-09-24T10:46:01;101297.94;;;11.85;93.74
69058;BME280;56128;37.534;-122.308;2022-09-24T10:48:43;101296.47;;;11.81;93.49
69058;BME280;56128;37.534;-122.308;2022-09-24T10:51:12;101299.16;;;11.81;93.79
69058;BME280;56128;37.534;-122.308;2022-09-24T10:54:08;101300.34;;;11.77;93.16
69058;BME280;56128;37.534;-122.308;2022-09-24T10:56:45;101302.50;;;11.72;94.61
69058;BME280;56128;37.534;-122.308;2022-09-24T11:05:03;101303.91;;;11.65;94.04
69058;BME280;56128;37.534;-122.308;2022-09-24T11:16:12;101299.44;;;11.52;94.91
69058;BME280;56128;37.534;-122.308;2022-09-24T11:19:02;101294.31;;;11.49;95.67
69058;BME280;56128;37.534;-122.308;2022-09-24T11:21:56;101299.03;;;11.46;95.57
69058;BME280;56128;37.534;-122.308;2022-09-24T11:46:25;101290.34;;;11.29;96.73
69058;BME280;56128;37.534;-122.308;2022-09-24T11:52:05;101286.81;;;11.29;97.27
69058;BME280;56128;37.534;-122.308;2022-09-24T11:54:39;101278.25;;;11.24;97.16
69058;BME280;56128;37.534;-122.308;2022-09-24T11:57:32;101281.13;;;11.20;97.38
69058;BME280;56128;37.534;-122.308;2022-09-24T12:00:20;101284.81;;;11.19;97.41
69058;BME280;56128;37.534;-122.308;2022-09-24T12:03:17;101286.72;;;11.17;97.72
69058;BME280;56128;37.534;-122.308;2022-09-24T12:05:50;101289.50;;;11.16;98.28
69058;BME280;56128;37.534;-122.308;2022-09-24T12:08:29;101292.31;;;11.14;98.45
69058;BME280;56128;37.534;-122.308;2022-09-24T12:13:55;101291.75;;;11.09;98.21
69058;BME280;56128;37.534;-122.308;2022-09-24T12:16:42;101292.75;;;11.08;97.91
69058;BME280;56128;37.534;-122.308;2022-09-24T12:21:42;101293.81;;;11.06;99.96
69058;BME280;56128;37.534;-122.308;2022-09-24T12:24:38;101300.00;;;11.06;100.00
69058;BME280;56128;37.534;-122.308;2022-09-24T12:27:13;101302.03;;;11.02;100.00
69058;BME280;56128;37.534;-122.308;2022-09-24T12:32:37;101309.44;;;10.99;100.00
69058;BME280;56128;37.534;-122.308;2022-09-24T12:38:40;101310.19;;;11.01;100.00
69058;BME280;56128;37.534;-122.308;2022-09-24T12:41:28;101312.09;;;10.99;100.00
69058;BME280;56128;37.534;-122.308;2022-09-24T12:44:04;101316.91;;;10.94;100.00
69058;BME280;56128;37.534;-122.308;2022-09-24T12:46:49;101320.56;;;10.93;100.00
69058;BME280;56128;37.534;-122.308;2022-09-24T12:51:53;101330.31;;;10.94;100.00
69058;BME280;56128;37.534;-122.308;2022-09-24T12:54:23;101329.34;;;10.95;100.00
69058;BME280;56128;37.534;-122.308;2022-09-24T12:57:10;101333.88;;;10.94;100.00
69058;BME280;56128;37.534;-122.308;2022-09-24T12:59:54;101337.50;;;10.93;100.00
69058;BME280;56128;37.534;-122.308;2022-09-24T13:02:26;101341.03;;;10.94;100.00
69058;BME280;56128;37.534;-122.308;2022-09-24T13:07:32;101344.88;;;10.90;100.00
69058;BME280;56128;37.534;-122.308;2022-09-24T13:12:44;101346.59;;;10.91;100.00
69058;BME280;56128;37.534;-122.308;2022-09-24T13:15:43;101361.91;;;10.88;100.00
69058;BME280;56128;37.534;-122.308;2022-09-24T13:20:41;101364.16;;;10.82;100.00
69058;BME280;56128;37.534;-122.308;2022-09-24T13:26:25;101366.16;;;10.78;100.00
69058;BME280;56128;37.534;-122.308;2022-09-24T13:29:05;101373.31;;;10.78;100.00
69058;BME280;56128;37.534;-122.308;2022-09-24T13:31:49;101370.88;;;10.75;100.00
69058;BME280;56128;37.534;-122.308;2022-09-24T13:34:28;101378.13;;;10.72;100.00
69058;BME280;56128;37.534;-122.308;2022-09-24T13:37:28;101376.53;;;10.70;100.00
69058;BME280;56128;37.534;-122.308;2022-09-24T13:40:05;101362.72;;;10.63;100.00
69058;BME280;56128;37.534;-122.308;2022-09-24T13:42:59;101384.97;;;10.64;100.00
69058;BME280;56128;37.534;-122.308;2022-09-24T13:45:29;101378.00;;;10.61;100.00
69058;BME280;56128;37.534;-122.308;2022-09-24T13:50:32;101382.41;;;10.62;100.00
69058;BME280;56128;37.534;-122.308;2022-09-24T13:53:33;101383.47;;;10.60;100.00
69058;BME280;56128;37.534;-122.308;2022-09-24T13:56:04;101381.84;;;10.57;100.00
69058;BME280;56128;37.534;-122.308;2022-09-24T13:58:36;101380.88;;;10.58;100.00
69058;BME280;56128;37.534;-122.308;2022-09-24T14:01:11;101389.88;;;10.57;100.00
69058;BME280;56128;37.534;-122.308;2022-09-24T14:03:40;101390.53;;;10.61;100.00
69058;BME280;56128;37.534;-122.308;2022-09-24T14:06:41;101390.31;;;10.64;100.00
69058;BME280;56128;37.534;-122.308;2022-09-24T14:09:31;101393.75;;;10.66;100.00
69058;BME280;56128;37.534;-122.308;2022-09-24T14:11:59;101400.72;;;10.68;100.00
69058;BME280;56128;37.534;-122.308;2022-09-24T14:14:28;101406.06;;;10.68;100.00
69058;BME280;56128;37.534;-122.308;2022-09-24T14:17:10;101406.19;;;10.67;100.00
69058;BME280;56128;37.534;-122.308;2022-09-24T14:19:37;101403.50;;;10.67;100.00
69058;BME280;56128;37.534;-122.308;2022-09-24T14:22:10;101406.72;;;10.72;100.00
69058;BME280;56128;37.534;-122.308;2022-09-24T14:25:08;101409.97;;;10.77;100.00
69058;BME280;56128;37.534;-122.308;2022-09-24T14:27:47;101404.59;;;10.77;100.00
69058;BME280;56128;37.534;-122.308;2022-09-24T14:30:22;101410.50;;;10.82;100.00
69058;BME280;56128;37.534;-122.308;2022-09-24T14:33:01;101411.94;;;10.88;100.00